PWSweather.com
Personal Weather Stations
Station Observations
KNCCHINA3
Red Tractor Trail, China Grove, NC 28023

Red Tractor TrailChina Grove, NC 28023

Lat: 35.59751, Lon: -80.60201

Elevation: 800

Station Type: Oregon Scientific WMR 968

http://www.joesweathergarage.com

High Low Average
Temperature 89.0°F31.7°C 66.7°F19.3°C 71.0°F21.7°C
Dew Point 77.5°F25.3°C 65.8°F18.8°C 69.3°F20.7°C
Winds 5.5 mph 8.9 kmh Calm Calm 2.0 mph SE3.2 kmh SE
Wind Gusts 12.6 mph20.3 kmh -- 3.0 mph4.8 kmh
Humidity 98% 65% 95%
Pressure 30.00 in1015.9 mb 29.88 in1011.9 mb -
Precipitation 0.79 in20.1 mm - -
Hour Temp Dew Point Humidity Winds Wind Gusts Pressure Precip Precip Rate Daily Precip Total
12:02 AM 67.8°F19.9°C 67.1°F19.5°C 98% Calm Calm -- 29.97 in1014.9 mb 0.00 in0.0 mm 0.00 in0.0 mm 0.00 in0.0 mm
12:07 AM 68.0°F20.0°C 67.3°F19.6°C 98% Calm Calm -- 29.97 in1014.9 mb 0.00 in0.0 mm 0.00 in0.0 mm 0.00 in0.0 mm
12:14 AM 67.8°F19.9°C 67.1°F19.5°C 98% Calm Calm -- 29.97 in1014.9 mb 0.00 in0.0 mm 0.00 in0.0 mm 0.00 in0.0 mm
12:19 AM 67.6°F19.8°C 67.0°F19.4°C 98% Calm Calm -- 29.94 in1013.9 mb 0.00 in0.0 mm 0.00 in0.0 mm 0.00 in0.0 mm
12:25 AM 67.4°F19.7°C 66.8°F19.3°C 98% Calm Calm -- 29.94 in1013.9 mb 0.00 in0.0 mm 0.00 in0.0 mm 0.00 in0.0 mm
12:30 AM 67.6°F19.8°C 67.0°F19.4°C 98% Calm Calm -- 29.94 in1013.9 mb 0.00 in0.0 mm 0.00 in0.0 mm 0.00 in0.0 mm
12:35 AM 67.6°F19.8°C 67.0°F19.4°C 98% Calm Calm -- 29.94 in1013.9 mb 0.00 in0.0 mm 0.00 in0.0 mm 0.00 in0.0 mm
12:40 AM 67.6°F19.8°C 67.0°F19.4°C 98% Calm Calm -- 29.94 in1013.9 mb 0.00 in0.0 mm 0.00 in0.0 mm 0.00 in0.0 mm
12:46 AM 67.4°F19.7°C 66.8°F19.3°C 98% Calm Calm -- 29.94 in1013.9 mb 0.00 in0.0 mm 0.00 in0.0 mm 0.00 in0.0 mm
12:51 AM 67.6°F19.8°C 67.0°F19.4°C 98% Calm Calm -- 29.94 in1013.9 mb 0.00 in0.0 mm 0.00 in0.0 mm 0.00 in0.0 mm
12:56 AM 67.4°F19.7°C 66.8°F19.3°C 98% Calm Calm -- 29.94 in1013.9 mb 0.00 in0.0 mm 0.00 in0.0 mm 0.00 in0.0 mm
01:01 AM 67.4°F19.7°C 66.8°F19.3°C 98% Calm Calm -- 29.94 in1013.9 mb 0.00 in0.0 mm 0.00 in0.0 mm 0.00 in0.0 mm
01:06 AM 67.4°F19.7°C 66.8°F19.3°C 98% Calm Calm -- 29.97 in1014.9 mb 0.00 in0.0 mm 0.00 in0.0 mm 0.00 in0.0 mm
01:11 AM 67.4°F19.7°C 66.8°F19.3°C 98% Calm Calm -- 29.97 in1014.9 mb 0.00 in0.0 mm 0.00 in0.0 mm 0.00 in0.0 mm
01:17 AM 67.4°F19.7°C 66.8°F19.3°C 98% Calm Calm -- 29.97 in1014.9 mb 0.00 in0.0 mm 0.00 in0.0 mm 0.00 in0.0 mm
01:22 AM 67.4°F19.7°C 66.8°F19.3°C 98% Calm Calm -- 29.97 in1014.9 mb 0.00 in0.0 mm 0.00 in0.0 mm 0.00 in0.0 mm
01:27 AM 67.4°F19.7°C 66.8°F19.3°C 98% Calm Calm -- 29.97 in1014.9 mb 0.00 in0.0 mm 0.00 in0.0 mm 0.00 in0.0 mm
01:32 AM 67.4°F19.7°C 66.8°F19.3°C 98% Calm Calm -- 29.97 in1014.9 mb 0.00 in0.0 mm 0.00 in0.0 mm 0.00 in0.0 mm
01:38 AM 67.4°F19.7°C 66.8°F19.3°C 98% Calm Calm -- 29.97 in1014.9 mb 0.00 in0.0 mm 0.00 in0.0 mm 0.00 in0.0 mm
01:43 AM 67.4°F19.7°C 66.8°F19.3°C 98% Calm Calm -- 29.97 in1014.9 mb 0.00 in0.0 mm 0.00 in0.0 mm 0.00 in0.0 mm
01:49 AM 67.4°F19.7°C 66.8°F19.3°C 98% Calm Calm -- 29.97 in1014.9 mb 0.00 in0.0 mm 0.00 in0.0 mm 0.00 in0.0 mm
01:54 AM 67.4°F19.7°C 66.8°F19.3°C 98% Calm Calm -- 29.97 in1014.9 mb 0.00 in0.0 mm 0.00 in0.0 mm 0.00 in0.0 mm
01:59 AM 67.4°F19.7°C 66.8°F19.3°C 98% Calm Calm -- 29.97 in1014.9 mb 0.00 in0.0 mm 0.00 in0.0 mm 0.00 in0.0 mm
02:04 AM 67.4°F19.7°C 66.8°F19.3°C 98% Calm Calm -- 29.97 in1014.9 mb 0.00 in0.0 mm 0.00 in0.0 mm 0.00 in0.0 mm
02:10 AM 67.6°F19.8°C 67.0°F19.4°C 98% Calm Calm -- 29.97 in1014.9 mb 0.00 in0.0 mm 0.00 in0.0 mm 0.00 in0.0 mm
02:15 AM 67.6°F19.8°C 67.0°F19.4°C 98% Calm Calm -- 29.97 in1014.9 mb 0.00 in0.0 mm 0.00 in0.0 mm 0.00 in0.0 mm
02:21 AM 67.6°F19.8°C 67.0°F19.4°C 98% Calm Calm -- 29.97 in1014.9 mb 0.00 in0.0 mm 0.00 in0.0 mm 0.00 in0.0 mm
02:26 AM 67.4°F19.7°C 66.8°F19.3°C 98% Calm Calm -- 29.97 in1014.9 mb 0.00 in0.0 mm 0.00 in0.0 mm 0.00 in0.0 mm
02:31 AM 67.4°F19.7°C 66.8°F19.3°C 98% Calm Calm -- 29.97 in1014.9 mb 0.00 in0.0 mm 0.00 in0.0 mm 0.00 in0.0 mm
02:36 AM 67.4°F19.7°C 66.8°F19.3°C 98% Calm Calm -- 29.97 in1014.9 mb 0.00 in0.0 mm 0.00 in0.0 mm 0.00 in0.0 mm
02:42 AM 67.4°F19.7°C 66.8°F19.3°C 98% Calm Calm -- 29.97 in1014.9 mb 0.00 in0.0 mm 0.00 in0.0 mm 0.00 in0.0 mm
02:47 AM 67.4°F19.7°C 66.8°F19.3°C 98% Calm Calm -- 29.97 in1014.9 mb 0.00 in0.0 mm 0.00 in0.0 mm 0.00 in0.0 mm
02:52 AM 67.4°F19.7°C 66.8°F19.3°C 98% Calm Calm -- 29.97 in1014.9 mb 0.00 in0.0 mm 0.00 in0.0 mm 0.00 in0.0 mm
02:57 AM 67.4°F19.7°C 66.8°F19.3°C 98% Calm Calm -- 29.97 in1014.9 mb 0.00 in0.0 mm 0.00 in0.0 mm 0.00 in0.0 mm
03:02 AM 67.4°F19.7°C 66.8°F19.3°C 98% Calm Calm -- 29.94 in1013.9 mb 0.00 in0.0 mm 0.00 in0.0 mm 0.00 in0.0 mm
03:07 AM 67.4°F19.7°C 66.8°F19.3°C 98% Calm Calm -- 29.94 in1013.9 mb 0.00 in0.0 mm 0.00 in0.0 mm 0.00 in0.0 mm
03:14 AM 67.3°F19.6°C 66.7°F19.3°C 98% Calm Calm -- 29.94 in1013.9 mb 0.00 in0.0 mm 0.00 in0.0 mm 0.00 in0.0 mm
03:19 AM 67.3°F19.6°C 66.7°F19.3°C 98% Calm Calm -- 29.94 in1013.9 mb 0.00 in0.0 mm 0.00 in0.0 mm 0.00 in0.0 mm
03:24 AM 67.3°F19.6°C 66.7°F19.3°C 98% Calm Calm -- 29.94 in1013.9 mb 0.00 in0.0 mm 0.00 in0.0 mm 0.00 in0.0 mm
03:29 AM 67.3°F19.6°C 66.7°F19.3°C 98% Calm Calm -- 29.94 in1013.9 mb 0.00 in0.0 mm 0.00 in0.0 mm 0.00 in0.0 mm
03:34 AM 67.3°F19.6°C 66.7°F19.3°C 98% Calm Calm -- 29.94 in1013.9 mb 0.00 in0.0 mm 0.00 in0.0 mm 0.00 in0.0 mm
03:39 AM 67.4°F19.7°C 66.8°F19.3°C 98% Calm Calm -- 29.94 in1013.9 mb 0.00 in0.0 mm 0.00 in0.0 mm 0.00 in0.0 mm
03:45 AM 67.4°F19.7°C 66.8°F19.3°C 98% Calm Calm -- 29.94 in1013.9 mb 0.00 in0.0 mm 0.00 in0.0 mm 0.00 in0.0 mm
03:50 AM 67.4°F19.7°C 66.8°F19.3°C 98% Calm Calm -- 29.97 in1014.9 mb 0.00 in0.0 mm 0.00 in0.0 mm 0.00 in0.0 mm
03:56 AM 67.4°F19.7°C 66.8°F19.3°C 98% Calm Calm -- 29.97 in1014.9 mb 0.00 in0.0 mm 0.00 in0.0 mm 0.00 in0.0 mm
04:01 AM 67.6°F19.8°C 67.0°F19.4°C 98% Calm Calm 1.8 mph2.9 kmh 29.97 in1014.9 mb 0.00 in0.0 mm 0.00 in0.0 mm 0.00 in0.0 mm
04:06 AM 67.6°F19.8°C 67.0°F19.4°C 98% Calm Calm 1.8 mph2.9 kmh 29.97 in1014.9 mb 0.00 in0.0 mm 0.00 in0.0 mm 0.00 in0.0 mm
04:11 AM 67.6°F19.8°C 67.0°F19.4°C 98% 5.5 mph SE8.9 kmh SE 7.2 mph11.6 kmh 29.97 in1014.9 mb 0.00 in0.0 mm 0.00 in0.0 mm 0.00 in0.0 mm
04:16 AM 67.8°F19.9°C 67.1°F19.5°C 98% Calm Calm 7.2 mph11.6 kmh 29.97 in1014.9 mb 0.00 in0.0 mm 0.00 in0.0 mm 0.00 in0.0 mm
04:21 AM 67.8°F19.9°C 67.1°F19.5°C 98% 2.2 mph SE3.5 kmh SE 2.6 mph4.2 kmh 29.94 in1013.9 mb 0.00 in0.0 mm 0.00 in0.0 mm 0.00 in0.0 mm
04:26 AM 68.0°F20.0°C 67.3°F19.6°C 98% 1.9 mph SSE3.1 kmh SSE 2.6 mph4.2 kmh 29.94 in1013.9 mb 0.04 in1.0 mm 0.48 in12.2 mm 0.04 in1.0 mm
04:31 AM 68.0°F20.0°C 67.3°F19.6°C 98% 1.8 mph SE2.9 kmh SE 2.6 mph4.2 kmh 29.94 in1013.9 mb 0.04 in1.0 mm 0.00 in0.0 mm 0.04 in1.0 mm
04:37 AM 68.0°F20.0°C 67.3°F19.6°C 98% 2.9 mph SE4.7 kmh SE 5.4 mph8.7 kmh 29.97 in1014.9 mb 0.08 in2.0 mm 0.40 in10.2 mm 0.08 in2.0 mm
04:42 AM 68.0°F20.0°C 67.3°F19.6°C 98% Calm Calm 5.4 mph8.7 kmh 29.97 in1014.9 mb 0.08 in2.0 mm 0.00 in0.0 mm 0.08 in2.0 mm
04:47 AM 68.0°F20.0°C 67.3°F19.6°C 98% Calm Calm 2.6 mph4.2 kmh 29.97 in1014.9 mb 0.08 in2.0 mm 0.00 in0.0 mm 0.08 in2.0 mm
04:52 AM 68.0°F20.0°C 67.3°F19.6°C 98% 2.4 mph SE3.9 kmh SE 3.2 mph5.1 kmh 29.97 in1014.9 mb 0.00 in0.0 mm 0.00 in0.0 mm 0.08 in2.0 mm
04:57 AM 68.0°F20.0°C 67.3°F19.6°C 98% Calm Calm 3.2 mph5.1 kmh 29.97 in1014.9 mb 0.00 in0.0 mm 0.00 in0.0 mm 0.08 in2.0 mm
05:02 AM 68.0°F20.0°C 67.3°F19.6°C 98% Calm Calm -- 29.97 in1014.9 mb 0.00 in0.0 mm 0.00 in0.0 mm 0.08 in2.0 mm
05:07 AM 68.0°F20.0°C 67.3°F19.6°C 98% Calm Calm -- 29.97 in1014.9 mb 0.00 in0.0 mm 0.00 in0.0 mm 0.08 in2.0 mm
05:12 AM 68.0°F20.0°C 67.3°F19.6°C 98% Calm Calm -- 29.97 in1014.9 mb 0.00 in0.0 mm 0.00 in0.0 mm 0.08 in2.0 mm
05:17 AM 68.0°F20.0°C 67.3°F19.6°C 98% Calm Calm -- 29.97 in1014.9 mb 0.00 in0.0 mm 0.00 in0.0 mm 0.08 in2.0 mm
05:22 AM 68.0°F20.0°C 67.3°F19.6°C 98% Calm Calm -- 29.97 in1014.9 mb 0.00 in0.0 mm 0.00 in0.0 mm 0.08 in2.0 mm
05:27 AM 68.0°F20.0°C 67.3°F19.6°C 98% Calm Calm -- 29.97 in1014.9 mb 0.00 in0.0 mm 0.00 in0.0 mm 0.08 in2.0 mm
05:32 AM 68.0°F20.0°C 67.3°F19.6°C 98% Calm Calm -- 29.97 in1014.9 mb 0.00 in0.0 mm 0.00 in0.0 mm 0.08 in2.0 mm
05:38 AM 68.0°F20.0°C 67.3°F19.6°C 98% Calm Calm -- 29.97 in1014.9 mb 0.00 in0.0 mm 0.00 in0.0 mm 0.08 in2.0 mm
05:43 AM 68.0°F20.0°C 67.3°F19.6°C 98% Calm Calm -- 29.97 in1014.9 mb 0.04 in1.0 mm 0.48 in12.2 mm 0.12 in3.0 mm
05:49 AM 68.0°F20.0°C 67.3°F19.6°C 98% Calm Calm -- 29.97 in1014.9 mb 0.00 in0.0 mm 0.00 in0.0 mm 0.12 in3.0 mm
05:54 AM 68.2°F20.1°C 67.5°F19.7°C 98% 2.1 mph SE3.4 kmh SE 2.6 mph4.2 kmh 29.97 in1014.9 mb 0.00 in0.0 mm 0.00 in0.0 mm 0.12 in3.0 mm
05:59 AM 68.2°F20.1°C 67.5°F19.7°C 98% 2.6 mph SE4.2 kmh SE 4.0 mph6.4 kmh 29.97 in1014.9 mb 0.00 in0.0 mm 0.00 in0.0 mm 0.12 in3.0 mm
06:04 AM 68.2°F20.1°C 67.5°F19.7°C 98% 2.3 mph SE3.7 kmh SE 4.0 mph6.4 kmh 30.00 in1015.9 mb 0.00 in0.0 mm 0.00 in0.0 mm 0.12 in3.0 mm
06:09 AM 68.3°F20.2°C 67.6°F19.8°C 98% Calm Calm 2.6 mph4.2 kmh 30.00 in1015.9 mb 0.00 in0.0 mm 0.00 in0.0 mm 0.12 in3.0 mm
06:14 AM 68.3°F20.2°C 67.6°F19.8°C 98% Calm Calm 2.6 mph4.2 kmh 30.00 in1015.9 mb 0.00 in0.0 mm 0.00 in0.0 mm 0.12 in3.0 mm
06:21 AM 68.5°F20.3°C 67.8°F19.9°C 98% Calm Calm -- 29.97 in1014.9 mb 0.00 in0.0 mm 0.00 in0.0 mm 0.12 in3.0 mm
06:26 AM 68.7°F20.4°C 68.0°F20.0°C 98% 2.4 mph SE3.9 kmh SE 2.6 mph4.2 kmh 29.97 in1014.9 mb 0.00 in0.0 mm 0.00 in0.0 mm 0.12 in3.0 mm
06:32 AM 68.9°F20.5°C 68.2°F20.1°C 98% 2.2 mph SE3.5 kmh SE 2.6 mph4.2 kmh 29.97 in1014.9 mb 0.00 in0.0 mm 0.00 in0.0 mm 0.12 in3.0 mm
06:37 AM 69.1°F20.6°C 68.4°F20.2°C 98% 1.8 mph SE2.9 kmh SE 2.2 mph3.5 kmh 29.97 in1014.9 mb 0.00 in0.0 mm 0.00 in0.0 mm 0.12 in3.0 mm
06:42 AM 69.1°F20.6°C 68.4°F20.2°C 98% Calm Calm 1.8 mph2.9 kmh 29.97 in1014.9 mb 0.00 in0.0 mm 0.00 in0.0 mm 0.12 in3.0 mm
06:47 AM 69.1°F20.6°C 68.4°F20.2°C 98% Calm Calm -- 29.97 in1014.9 mb 0.00 in0.0 mm 0.00 in0.0 mm 0.12 in3.0 mm
06:52 AM 69.1°F20.6°C 68.4°F20.2°C 98% Calm Calm -- 29.97 in1014.9 mb 0.00 in0.0 mm 0.00 in0.0 mm 0.12 in3.0 mm
06:57 AM 69.1°F20.6°C 68.4°F20.2°C 98% Calm Calm 2.6 mph4.2 kmh 29.97 in1014.9 mb 0.00 in0.0 mm 0.00 in0.0 mm 0.12 in3.0 mm
07:02 AM 69.2°F20.7°C 68.5°F20.3°C 98% 2.2 mph SSE3.5 kmh SSE 3.2 mph5.1 kmh 29.97 in1014.9 mb 0.00 in0.0 mm 0.00 in0.0 mm 0.12 in3.0 mm
07:07 AM 69.6°F20.9°C 68.9°F20.5°C 98% 2.2 mph SE3.5 kmh SE 3.2 mph5.1 kmh 29.94 in1013.9 mb 0.00 in0.0 mm 0.00 in0.0 mm 0.12 in3.0 mm
07:12 AM 69.8°F21.0°C 69.1°F20.6°C 98% 3.1 mph SE5.0 kmh SE 4.4 mph7.1 kmh 29.94 in1013.9 mb 0.00 in0.0 mm 0.00 in0.0 mm 0.12 in3.0 mm
07:17 AM 69.8°F21.0°C 69.1°F20.6°C 98% 2.5 mph SE4.0 kmh SE 4.4 mph7.1 kmh 29.94 in1013.9 mb 0.00 in0.0 mm 0.00 in0.0 mm 0.12 in3.0 mm
07:22 AM 70.0°F21.1°C 69.3°F20.7°C 98% 2.7 mph ESE4.3 kmh ESE 5.0 mph8.0 kmh 29.97 in1014.9 mb 0.00 in0.0 mm 0.00 in0.0 mm 0.12 in3.0 mm
07:27 AM 70.3°F21.3°C 69.6°F20.9°C 98% 2.2 mph SSE3.5 kmh SSE 5.0 mph8.0 kmh 29.97 in1014.9 mb 0.00 in0.0 mm 0.00 in0.0 mm 0.12 in3.0 mm
07:32 AM 70.7°F21.5°C 70.0°F21.1°C 98% Calm Calm 4.0 mph6.4 kmh 29.97 in1014.9 mb 0.04 in1.0 mm 0.48 in12.2 mm 0.16 in4.1 mm
07:37 AM 70.7°F21.5°C 70.0°F21.1°C 98% Calm Calm 4.0 mph6.4 kmh 29.94 in1013.9 mb 0.04 in1.0 mm 0.00 in0.0 mm 0.16 in4.1 mm
07:43 AM 70.7°F21.5°C 70.0°F21.1°C 98% 2.2 mph ESE3.5 kmh ESE 4.0 mph6.4 kmh 29.94 in1013.9 mb 0.04 in1.0 mm 0.00 in0.0 mm 0.16 in4.1 mm
07:48 AM 70.7°F21.5°C 70.0°F21.1°C 98% 2.2 mph S3.5 kmh S 3.2 mph5.1 kmh 29.97 in1014.9 mb 0.04 in1.0 mm 0.00 in0.0 mm 0.16 in4.1 mm
07:53 AM 70.9°F21.6°C 70.2°F21.2°C 98% 2.4 mph SE3.9 kmh SE 3.2 mph5.1 kmh 29.97 in1014.9 mb 0.00 in0.0 mm 0.00 in0.0 mm 0.16 in4.1 mm
07:58 AM 71.2°F21.8°C 70.5°F21.4°C 98% 2.3 mph SE3.7 kmh SE 2.6 mph4.2 kmh 29.97 in1014.9 mb 0.00 in0.0 mm 0.00 in0.0 mm 0.16 in4.1 mm
08:03 AM 71.2°F21.8°C 70.5°F21.4°C 98% 2.0 mph S3.2 kmh S 2.6 mph4.2 kmh 29.94 in1013.9 mb 0.00 in0.0 mm 0.00 in0.0 mm 0.16 in4.1 mm
08:08 AM 71.0°F21.7°C 70.3°F21.3°C 98% 2.9 mph E4.7 kmh E 4.0 mph6.4 kmh 29.94 in1013.9 mb 0.00 in0.0 mm 0.00 in0.0 mm 0.16 in4.1 mm
08:13 AM 71.0°F21.7°C 70.3°F21.3°C 98% 2.3 mph SSW3.7 kmh SSW 4.0 mph6.4 kmh 29.94 in1013.9 mb 0.00 in0.0 mm 0.00 in0.0 mm 0.16 in4.1 mm
08:18 AM 71.4°F21.9°C 70.7°F21.5°C 98% Calm Calm 2.6 mph4.2 kmh 29.97 in1014.9 mb 0.00 in0.0 mm 0.00 in0.0 mm 0.16 in4.1 mm
08:24 AM 71.4°F21.9°C 70.7°F21.5°C 98% 1.8 mph SSE2.9 kmh SSE 3.2 mph5.1 kmh 29.97 in1014.9 mb 0.00 in0.0 mm 0.00 in0.0 mm 0.16 in4.1 mm
08:29 AM 71.4°F21.9°C 70.7°F21.5°C 98% 3.3 mph S5.3 kmh S 5.4 mph8.7 kmh 29.97 in1014.9 mb 0.00 in0.0 mm 0.00 in0.0 mm 0.16 in4.1 mm
08:35 AM 71.6°F22.0°C 70.9°F21.6°C 98% Calm Calm 5.4 mph8.7 kmh 29.97 in1014.9 mb 0.00 in0.0 mm 0.00 in0.0 mm 0.16 in4.1 mm
08:40 AM 71.9°F22.2°C 71.2°F21.8°C 98% 4.0 mph S6.4 kmh S 6.2 mph10.0 kmh 29.97 in1014.9 mb 0.00 in0.0 mm 0.00 in0.0 mm 0.16 in4.1 mm
08:45 AM 71.8°F22.1°C 71.1°F21.7°C 98% 2.7 mph SSE4.3 kmh SSE 6.2 mph10.0 kmh 29.97 in1014.9 mb 0.00 in0.0 mm 0.00 in0.0 mm 0.16 in4.1 mm
08:50 AM 71.6°F22.0°C 70.9°F21.6°C 98% 2.4 mph SSE3.9 kmh SSE 5.0 mph8.0 kmh 29.97 in1014.9 mb 0.00 in0.0 mm 0.00 in0.0 mm 0.16 in4.1 mm
08:55 AM 71.6°F22.0°C 70.9°F21.6°C 98% 2.2 mph SSE3.5 kmh SSE 5.0 mph8.0 kmh 29.97 in1014.9 mb 0.00 in0.0 mm 0.00 in0.0 mm 0.16 in4.1 mm
09:00 AM 71.4°F21.9°C 70.7°F21.5°C 98% 2.0 mph S3.2 kmh S 7.6 mph12.2 kmh 29.97 in1014.9 mb 0.00 in0.0 mm 0.00 in0.0 mm 0.16 in4.1 mm
09:06 AM 71.2°F21.8°C 70.5°F21.4°C 98% 2.7 mph SSE4.3 kmh SSE 7.6 mph12.2 kmh 29.97 in1014.9 mb 0.00 in0.0 mm 0.00 in0.0 mm 0.16 in4.1 mm
09:11 AM 71.2°F21.8°C 70.5°F21.4°C 98% 2.4 mph S3.9 kmh S 6.2 mph10.0 kmh 29.97 in1014.9 mb 0.00 in0.0 mm 0.00 in0.0 mm 0.16 in4.1 mm
09:16 AM 71.4°F21.9°C 70.7°F21.5°C 98% 3.1 mph S5.0 kmh S 6.2 mph10.0 kmh 29.97 in1014.9 mb 0.00 in0.0 mm 0.00 in0.0 mm 0.16 in4.1 mm
09:21 AM 71.9°F22.2°C 71.2°F21.8°C 98% 3.4 mph S5.5 kmh S 5.8 mph9.3 kmh 29.97 in1014.9 mb 0.00 in0.0 mm 0.00 in0.0 mm 0.16 in4.1 mm
09:26 AM 73.0°F22.8°C 72.3°F22.4°C 98% 2.7 mph SW4.3 kmh SW 5.8 mph9.3 kmh 29.97 in1014.9 mb 0.00 in0.0 mm 0.00 in0.0 mm 0.16 in4.1 mm
09:32 AM 73.9°F23.3°C 73.2°F22.9°C 98% 3.8 mph NE6.1 kmh NE 7.6 mph12.2 kmh 29.97 in1014.9 mb 0.00 in0.0 mm 0.00 in0.0 mm 0.16 in4.1 mm
09:36 AM 74.3°F23.5°C 73.3°F22.9°C 97% 2.2 mph SSE3.5 kmh SSE 11.6 mph18.7 kmh 29.97 in1014.9 mb 0.00 in0.0 mm 0.00 in0.0 mm 0.16 in4.1 mm
09:41 AM 75.7°F24.3°C 74.4°F23.6°C 96% 3.4 mph S5.5 kmh S 11.6 mph18.7 kmh 29.97 in1014.9 mb 0.00 in0.0 mm 0.00 in0.0 mm 0.16 in4.1 mm
09:46 AM 76.4°F24.7°C 74.8°F23.8°C 95% 2.5 mph S4.0 kmh S 6.2 mph10.0 kmh 29.97 in1014.9 mb 0.00 in0.0 mm 0.00 in0.0 mm 0.16 in4.1 mm
09:51 AM 75.5°F24.2°C 73.2°F22.9°C 93% 3.4 mph SW5.5 kmh SW 8.0 mph12.9 kmh 29.97 in1014.9 mb 0.00 in0.0 mm 0.00 in0.0 mm 0.16 in4.1 mm
09:57 AM 76.6°F24.8°C 74.3°F23.5°C 93% 3.8 mph SE6.1 kmh SE 8.0 mph12.9 kmh 29.97 in1014.9 mb 0.00 in0.0 mm 0.00 in0.0 mm 0.16 in4.1 mm
10:02 AM 77.9°F25.5°C 75.3°F24.1°C 92% 3.5 mph SW5.6 kmh SW 5.8 mph9.3 kmh 29.97 in1014.9 mb 0.00 in0.0 mm 0.00 in0.0 mm 0.16 in4.1 mm
10:08 AM 78.8°F26.0°C 75.2°F24.0°C 89% 2.9 mph S4.7 kmh S 5.8 mph9.3 kmh 29.97 in1014.9 mb 0.00 in0.0 mm 0.00 in0.0 mm 0.16 in4.1 mm
10:13 AM 78.6°F25.9°C 74.7°F23.7°C 88% 2.6 mph ESE4.2 kmh ESE 5.8 mph9.3 kmh 29.97 in1014.9 mb 0.00 in0.0 mm 0.00 in0.0 mm 0.16 in4.1 mm
10:20 AM 76.8°F24.9°C 72.6°F22.6°C 87% 4.2 mph S6.8 kmh S 6.8 mph10.9 kmh 29.97 in1014.9 mb 0.00 in0.0 mm 0.00 in0.0 mm 0.16 in4.1 mm
10:25 AM 76.1°F24.5°C 72.2°F22.3°C 88% 3.4 mph SSW5.5 kmh SSW 6.8 mph10.9 kmh 29.97 in1014.9 mb 0.00 in0.0 mm 0.00 in0.0 mm 0.16 in4.1 mm
10:31 AM 75.2°F24.0°C 71.3°F21.8°C 88% 3.1 mph SW5.0 kmh SW 9.8 mph15.8 kmh 29.97 in1014.9 mb 0.00 in0.0 mm 0.00 in0.0 mm 0.16 in4.1 mm
10:36 AM 75.0°F23.9°C 71.5°F21.9°C 89% 2.9 mph SE4.7 kmh SE 9.8 mph15.8 kmh 29.97 in1014.9 mb 0.00 in0.0 mm 0.00 in0.0 mm 0.16 in4.1 mm
10:41 AM 74.8°F23.8°C 71.3°F21.8°C 89% 3.0 mph S4.8 kmh S 6.8 mph10.9 kmh 29.97 in1014.9 mb 0.00 in0.0 mm 0.00 in0.0 mm 0.16 in4.1 mm
10:46 AM 74.6°F23.7°C 71.4°F21.9°C 90% 3.1 mph SSE5.0 kmh SSE 6.8 mph10.9 kmh 29.97 in1014.9 mb 0.00 in0.0 mm 0.00 in0.0 mm 0.16 in4.1 mm
10:54 AM 74.3°F23.5°C 71.1°F21.7°C 90% 3.6 mph S5.8 kmh S 7.2 mph11.6 kmh 29.97 in1014.9 mb 0.00 in0.0 mm 0.00 in0.0 mm 0.16 in4.1 mm
10:59 AM 74.1°F23.4°C 71.2°F21.8°C 91% 2.7 mph S4.3 kmh S 6.2 mph10.0 kmh 29.97 in1014.9 mb 0.00 in0.0 mm 0.00 in0.0 mm 0.16 in4.1 mm
11:04 AM 74.3°F23.5°C 71.7°F22.1°C 92% 2.8 mph S4.5 kmh S 5.4 mph8.7 kmh 29.97 in1014.9 mb 0.00 in0.0 mm 0.00 in0.0 mm 0.16 in4.1 mm
11:09 AM 74.6°F23.7°C 72.0°F22.2°C 92% 3.7 mph S6.0 kmh S 5.0 mph8.0 kmh 29.97 in1014.9 mb 0.00 in0.0 mm 0.00 in0.0 mm 0.16 in4.1 mm
11:16 AM 75.2°F24.0°C 72.6°F22.6°C 92% 2.8 mph SE4.5 kmh SE 7.6 mph12.2 kmh 29.97 in1014.9 mb 0.00 in0.0 mm 0.00 in0.0 mm 0.16 in4.1 mm
11:21 AM 75.5°F24.2°C 72.6°F22.6°C 91% 3.8 mph SW6.1 kmh SW 6.8 mph10.9 kmh 29.97 in1014.9 mb 0.00 in0.0 mm 0.00 in0.0 mm 0.16 in4.1 mm
11:26 AM 75.4°F24.1°C 72.2°F22.3°C 90% 3.9 mph W6.3 kmh W 7.2 mph11.6 kmh 29.97 in1014.9 mb 0.00 in0.0 mm 0.00 in0.0 mm 0.16 in4.1 mm
11:31 AM 75.4°F24.1°C 72.2°F22.3°C 90% 2.9 mph SSW4.7 kmh SSW 7.2 mph11.6 kmh 29.97 in1014.9 mb 0.00 in0.0 mm 0.00 in0.0 mm 0.16 in4.1 mm
11:36 AM 75.9°F24.4°C 72.7°F22.6°C 90% 2.8 mph S4.5 kmh S 6.2 mph10.0 kmh 29.97 in1014.9 mb 0.00 in0.0 mm 0.00 in0.0 mm 0.16 in4.1 mm
11:41 AM 76.3°F24.6°C 73.1°F22.8°C 90% 3.8 mph SSW6.1 kmh SSW 5.8 mph9.3 kmh 29.97 in1014.9 mb 0.00 in0.0 mm 0.00 in0.0 mm 0.16 in4.1 mm
11:46 AM 77.3°F25.2°C 73.4°F23.0°C 88% 3.6 mph S5.8 kmh S 5.8 mph9.3 kmh 29.97 in1014.9 mb 0.00 in0.0 mm 0.00 in0.0 mm 0.16 in4.1 mm
11:51 AM 79.0°F26.1°C 75.1°F23.9°C 88% 3.8 mph SE6.1 kmh SE 6.8 mph10.9 kmh 29.97 in1014.9 mb 0.00 in0.0 mm 0.00 in0.0 mm 0.16 in4.1 mm
11:56 AM 79.9°F26.6°C 75.3°F24.1°C 86% 3.0 mph SSE4.8 kmh SSE 7.6 mph12.2 kmh 29.97 in1014.9 mb 0.00 in0.0 mm 0.00 in0.0 mm 0.16 in4.1 mm
12:01 PM 79.5°F26.4°C 73.5°F23.1°C 82% 4.3 mph WNW6.9 kmh WNW 7.6 mph12.2 kmh 29.97 in1014.9 mb 0.00 in0.0 mm 0.00 in0.0 mm 0.16 in4.1 mm
12:06 PM 80.8°F27.1°C 74.5°F23.6°C 81% 4.6 mph SE7.4 kmh SE 6.8 mph10.9 kmh 29.97 in1014.9 mb 0.00 in0.0 mm 0.00 in0.0 mm 0.16 in4.1 mm
12:11 PM 82.6°F28.1°C 76.6°F24.8°C 82% Calm Calm 6.2 mph10.0 kmh 29.97 in1014.9 mb 0.00 in0.0 mm 0.00 in0.0 mm 0.16 in4.1 mm
12:17 PM 83.6°F28.7°C 76.5°F24.7°C 79% 3.0 mph ESE4.8 kmh ESE 5.4 mph8.7 kmh 29.97 in1014.9 mb 0.00 in0.0 mm 0.00 in0.0 mm 0.16 in4.1 mm
12:22 PM 82.2°F27.9°C 74.0°F23.3°C 76% 3.6 mph SW5.8 kmh SW 6.8 mph10.9 kmh 29.97 in1014.9 mb 0.00 in0.0 mm 0.00 in0.0 mm 0.16 in4.1 mm
12:28 PM 81.8°F27.7°C 74.0°F23.3°C 77% 3.3 mph SW5.3 kmh SW 6.8 mph10.9 kmh 29.97 in1014.9 mb 0.00 in0.0 mm 0.00 in0.0 mm 0.16 in4.1 mm
12:33 PM 82.6°F28.1°C 74.7°F23.7°C 77% 2.0 mph ESE3.2 kmh ESE 6.2 mph10.0 kmh 29.97 in1014.9 mb 0.00 in0.0 mm 0.00 in0.0 mm 0.16 in4.1 mm
12:38 PM 81.7°F27.6°C 74.2°F23.4°C 78% 4.0 mph SE6.4 kmh SE 5.4 mph8.7 kmh 29.97 in1014.9 mb 0.00 in0.0 mm 0.00 in0.0 mm 0.16 in4.1 mm
12:43 PM 80.2°F26.8°C 72.8°F22.7°C 78% 2.2 mph ENE3.5 kmh ENE 5.4 mph8.7 kmh 29.97 in1014.9 mb 0.00 in0.0 mm 0.00 in0.0 mm 0.16 in4.1 mm
12:48 PM 82.7°F28.2°C 74.8°F23.8°C 77% 4.1 mph NE6.6 kmh NE 7.2 mph11.6 kmh 29.94 in1013.9 mb 0.00 in0.0 mm 0.00 in0.0 mm 0.16 in4.1 mm
12:53 PM 84.2°F29.0°C 75.9°F24.4°C 76% 4.6 mph SSE7.4 kmh SSE 7.6 mph12.2 kmh 29.94 in1013.9 mb 0.00 in0.0 mm 0.00 in0.0 mm 0.16 in4.1 mm
12:58 PM 84.5°F29.2°C 74.6°F23.7°C 72% 4.1 mph ESE6.6 kmh ESE 7.6 mph12.2 kmh 29.94 in1013.9 mb 0.00 in0.0 mm 0.00 in0.0 mm 0.16 in4.1 mm
01:03 PM 82.9°F28.3°C 73.5°F23.1°C 73% 3.1 mph SE5.0 kmh SE 6.2 mph10.0 kmh 29.94 in1013.9 mb 0.00 in0.0 mm 0.00 in0.0 mm 0.16 in4.1 mm
01:09 PM 82.9°F28.3°C 73.5°F23.1°C 73% 3.1 mph ENE5.0 kmh ENE 5.8 mph9.3 kmh 29.94 in1013.9 mb 0.00 in0.0 mm 0.00 in0.0 mm 0.16 in4.1 mm
01:14 PM 83.5°F28.6°C 74.5°F23.6°C 74% 3.3 mph S5.3 kmh S 7.2 mph11.6 kmh 29.94 in1013.9 mb 0.00 in0.0 mm 0.00 in0.0 mm 0.16 in4.1 mm
01:19 PM 84.4°F29.1°C 75.7°F24.3°C 75% 2.8 mph SE4.5 kmh SE 7.2 mph11.6 kmh 29.94 in1013.9 mb 0.00 in0.0 mm 0.00 in0.0 mm 0.16 in4.1 mm
01:24 PM 83.6°F28.7°C 74.9°F23.8°C 75% 3.0 mph ESE4.8 kmh ESE 5.4 mph8.7 kmh 29.94 in1013.9 mb 0.00 in0.0 mm 0.00 in0.0 mm 0.16 in4.1 mm
01:31 PM 86.7°F30.4°C 77.5°F25.3°C 74% 3.5 mph SSE5.6 kmh SSE 7.2 mph11.6 kmh 29.94 in1013.9 mb 0.00 in0.0 mm 0.00 in0.0 mm 0.16 in4.1 mm
01:36 PM 88.9°F31.6°C 76.7°F24.8°C 67% 4.1 mph E6.6 kmh E 7.2 mph11.6 kmh 29.94 in1013.9 mb 0.00 in0.0 mm 0.00 in0.0 mm 0.16 in4.1 mm
01:41 PM 89.0°F31.7°C 76.8°F24.9°C 67% 3.9 mph SE6.3 kmh SE 7.2 mph11.6 kmh 29.94 in1013.9 mb 0.00 in0.0 mm 0.00 in0.0 mm 0.16 in4.1 mm
01:46 PM 88.5°F31.4°C 75.4°F24.1°C 65% 3.2 mph SW5.1 kmh SW 7.2 mph11.6 kmh 29.94 in1013.9 mb 0.00 in0.0 mm 0.00 in0.0 mm 0.16 in4.1 mm
01:51 PM 84.4°F29.1°C 71.5°F21.9°C 65% 4.8 mph S7.7 kmh S 7.2 mph11.6 kmh 29.91 in1012.9 mb 0.00 in0.0 mm 0.00 in0.0 mm 0.16 in4.1 mm
01:56 PM 80.0°F26.7°C 69.1°F20.6°C 69% 4.5 mph S7.2 kmh S 12.6 mph20.3 kmh 29.91 in1012.9 mb 0.00 in0.0 mm 0.00 in0.0 mm 0.16 in4.1 mm
02:01 PM 75.0°F23.9°C 66.6°F19.2°C 75% 3.8 mph ESE6.1 kmh ESE 12.6 mph20.3 kmh 29.91 in1012.9 mb 0.17 in4.3 mm 0.19 in4.8 mm 0.33 in8.4 mm
02:06 PM 72.3°F22.4°C 65.8°F18.8°C 80% 2.8 mph ESE4.5 kmh ESE 7.6 mph12.2 kmh 29.97 in1014.9 mb 0.46 in11.7 mm 3.48 in88.4 mm 0.62 in15.7 mm
02:13 PM 70.7°F21.5°C 66.6°F19.2°C 87% 2.3 mph NNE3.7 kmh NNE 6.2 mph10.0 kmh 29.97 in1014.9 mb 0.46 in11.7 mm 0.00 in0.0 mm 0.62 in15.7 mm
02:18 PM 70.3°F21.3°C 66.5°F19.2°C 88% Calm Calm 5.8 mph9.3 kmh 29.97 in1014.9 mb 0.50 in12.7 mm 0.48 in12.2 mm 0.66 in16.8 mm
02:24 PM 70.0°F21.1°C 67.8°F19.9°C 93% Calm Calm -- 29.97 in1014.9 mb 0.50 in12.7 mm 0.00 in0.0 mm 0.66 in16.8 mm
02:29 PM 70.0°F21.1°C 68.1°F20.1°C 94% Calm Calm -- 29.97 in1014.9 mb 0.50 in12.7 mm 0.00 in0.0 mm 0.66 in16.8 mm
02:35 PM 70.0°F21.1°C 69.0°F20.6°C 97% 2.2 mph E3.5 kmh E 2.2 mph3.5 kmh 29.91 in1012.9 mb 0.50 in12.7 mm 0.00 in0.0 mm 0.66 in16.8 mm
02:40 PM 70.0°F21.1°C 69.3°F20.7°C 98% 2.1 mph WSW3.4 kmh WSW 2.6 mph4.2 kmh 29.91 in1012.9 mb 0.50 in12.7 mm 0.00 in0.0 mm 0.66 in16.8 mm
02:47 PM 70.0°F21.1°C 69.3°F20.7°C 98% Calm Calm 4.4 mph7.1 kmh 29.91 in1012.9 mb 0.00 in0.0 mm 0.00 in0.0 mm 0.66 in16.8 mm
02:52 PM 69.8°F21.0°C 69.1°F20.6°C 98% 2.2 mph S3.5 kmh S 4.0 mph6.4 kmh 29.91 in1012.9 mb 0.00 in0.0 mm 0.00 in0.0 mm 0.66 in16.8 mm
02:57 PM 69.8°F21.0°C 69.1°F20.6°C 98% 2.2 mph SSW3.5 kmh SSW 2.6 mph4.2 kmh 29.91 in1012.9 mb 0.00 in0.0 mm 0.00 in0.0 mm 0.66 in16.8 mm
03:02 PM 70.0°F21.1°C 69.3°F20.7°C 98% Calm Calm 2.6 mph4.2 kmh 29.91 in1012.9 mb 0.00 in0.0 mm 0.00 in0.0 mm 0.66 in16.8 mm
03:08 PM 70.1°F21.2°C 69.4°F20.8°C 98% Calm Calm -- 29.91 in1012.9 mb 0.00 in0.0 mm 0.00 in0.0 mm 0.66 in16.8 mm
03:13 PM 70.5°F21.4°C 69.8°F21.0°C 98% Calm Calm -- 29.91 in1012.9 mb 0.00 in0.0 mm 0.00 in0.0 mm 0.66 in16.8 mm
03:18 PM 70.9°F21.6°C 70.2°F21.2°C 98% Calm Calm 2.6 mph4.2 kmh 29.91 in1012.9 mb 0.00 in0.0 mm 0.00 in0.0 mm 0.66 in16.8 mm
03:23 PM 71.4°F21.9°C 70.7°F21.5°C 98% 2.1 mph ESE3.4 kmh ESE 3.2 mph5.1 kmh 29.91 in1012.9 mb 0.00 in0.0 mm 0.00 in0.0 mm 0.66 in16.8 mm
03:29 PM 71.9°F22.2°C 71.2°F21.8°C 98% 4.6 mph SE7.4 kmh SE 5.8 mph9.3 kmh 29.91 in1012.9 mb 0.00 in0.0 mm 0.00 in0.0 mm 0.66 in16.8 mm
03:34 PM 72.3°F22.4°C 71.6°F22.0°C 98% 2.6 mph SSE4.2 kmh SSE 5.8 mph9.3 kmh 29.91 in1012.9 mb 0.00 in0.0 mm 0.00 in0.0 mm 0.66 in16.8 mm
03:39 PM 73.2°F22.9°C 72.5°F22.5°C 98% 3.9 mph SE6.3 kmh SE 6.2 mph10.0 kmh 29.91 in1012.9 mb 0.00 in0.0 mm 0.00 in0.0 mm 0.66 in16.8 mm
03:44 PM 73.4°F23.0°C 72.7°F22.6°C 98% 4.4 mph E7.1 kmh E 6.2 mph10.0 kmh 29.91 in1012.9 mb 0.00 in0.0 mm 0.00 in0.0 mm 0.66 in16.8 mm
03:49 PM 73.7°F23.2°C 73.0°F22.8°C 98% 4.2 mph SE6.8 kmh SE 5.8 mph9.3 kmh 29.91 in1012.9 mb 0.00 in0.0 mm 0.00 in0.0 mm 0.66 in16.8 mm
03:54 PM 74.3°F23.5°C 73.3°F22.9°C 97% 2.1 mph E3.4 kmh E 5.8 mph9.3 kmh 29.91 in1012.9 mb 0.00 in0.0 mm 0.00 in0.0 mm 0.66 in16.8 mm
03:59 PM 74.5°F23.6°C 73.5°F23.1°C 97% 4.9 mph SSE7.9 kmh SSE 7.2 mph11.6 kmh 29.91 in1012.9 mb 0.00 in0.0 mm 0.00 in0.0 mm 0.66 in16.8 mm
04:04 PM 74.5°F23.6°C 73.2°F22.9°C 96% 3.6 mph ESE5.8 kmh ESE 8.6 mph13.8 kmh 29.91 in1012.9 mb 0.00 in0.0 mm 0.00 in0.0 mm 0.66 in16.8 mm
04:09 PM 73.7°F23.2°C 72.4°F22.4°C 96% 3.3 mph SE5.3 kmh SE 8.6 mph13.8 kmh 29.91 in1012.9 mb 0.00 in0.0 mm 0.00 in0.0 mm 0.66 in16.8 mm
04:14 PM 73.0°F22.8°C 71.7°F22.1°C 96% 2.4 mph SE3.9 kmh SE 6.8 mph10.9 kmh 29.91 in1012.9 mb 0.00 in0.0 mm 0.00 in0.0 mm 0.66 in16.8 mm
04:20 PM 73.4°F23.0°C 72.1°F22.3°C 96% 3.9 mph SE6.3 kmh SE 6.8 mph10.9 kmh 29.91 in1012.9 mb 0.00 in0.0 mm 0.00 in0.0 mm 0.66 in16.8 mm
04:25 PM 73.6°F23.1°C 72.3°F22.4°C 96% 4.5 mph SE7.2 kmh SE 5.8 mph9.3 kmh 29.91 in1012.9 mb 0.00 in0.0 mm 0.00 in0.0 mm 0.66 in16.8 mm
04:30 PM 73.2°F22.9°C 71.9°F22.2°C 96% 3.2 mph SE5.1 kmh SE 5.4 mph8.7 kmh 29.91 in1012.9 mb 0.00 in0.0 mm 0.00 in0.0 mm 0.66 in16.8 mm
04:35 PM 73.0°F22.8°C 71.7°F22.1°C 96% 2.1 mph ESE3.4 kmh ESE 5.4 mph8.7 kmh 29.91 in1012.9 mb 0.00 in0.0 mm 0.00 in0.0 mm 0.66 in16.8 mm
04:41 PM 72.5°F22.5°C 71.2°F21.8°C 96% 2.0 mph ESE3.2 kmh ESE 4.4 mph7.1 kmh 29.91 in1012.9 mb 0.00 in0.0 mm 0.00 in0.0 mm 0.66 in16.8 mm
04:46 PM 72.8°F22.7°C 71.5°F21.9°C 96% 1.9 mph ESE3.1 kmh ESE 2.6 mph4.2 kmh 29.91 in1012.9 mb 0.00 in0.0 mm 0.00 in0.0 mm 0.66 in16.8 mm
04:51 PM 73.4°F23.0°C 72.1°F22.3°C 96% 4.4 mph SE7.1 kmh SE 6.2 mph10.0 kmh 29.91 in1012.9 mb 0.00 in0.0 mm 0.00 in0.0 mm 0.66 in16.8 mm
04:56 PM 73.7°F23.2°C 72.1°F22.3°C 95% 4.4 mph ESE7.1 kmh ESE 7.6 mph12.2 kmh 29.91 in1012.9 mb 0.00 in0.0 mm 0.00 in0.0 mm 0.66 in16.8 mm
05:01 PM 74.1°F23.4°C 72.5°F22.5°C 95% 1.8 mph S2.9 kmh S 7.6 mph12.2 kmh 29.91 in1012.9 mb 0.00 in0.0 mm 0.00 in0.0 mm 0.66 in16.8 mm
05:06 PM 73.9°F23.3°C 72.0°F22.2°C 94% 2.6 mph SSE4.2 kmh SSE 6.8 mph10.9 kmh 29.88 in1011.9 mb 0.00 in0.0 mm 0.00 in0.0 mm 0.66 in16.8 mm
05:13 PM 73.7°F23.2°C 71.8°F22.1°C 94% 2.5 mph ESE4.0 kmh ESE 4.4 mph7.1 kmh 29.88 in1011.9 mb 0.00 in0.0 mm 0.00 in0.0 mm 0.66 in16.8 mm
05:18 PM 73.4°F23.0°C 71.5°F21.9°C 94% Calm Calm 4.4 mph7.1 kmh 29.88 in1011.9 mb 0.00 in0.0 mm 0.00 in0.0 mm 0.66 in16.8 mm
05:24 PM 73.0°F22.8°C 71.1°F21.7°C 94% 2.0 mph ESE3.2 kmh ESE 2.2 mph3.5 kmh 29.88 in1011.9 mb 0.00 in0.0 mm 0.00 in0.0 mm 0.66 in16.8 mm
05:29 PM 72.5°F22.5°C 70.9°F21.6°C 95% Calm Calm 2.2 mph3.5 kmh 29.88 in1011.9 mb 0.00 in0.0 mm 0.00 in0.0 mm 0.66 in16.8 mm
05:34 PM 71.8°F22.1°C 69.9°F21.1°C 94% 1.8 mph SSE2.9 kmh SSE 1.8 mph2.9 kmh 29.88 in1011.9 mb 0.00 in0.0 mm 0.00 in0.0 mm 0.66 in16.8 mm
05:39 PM 71.4°F21.9°C 69.8°F21.0°C 95% Calm Calm 1.8 mph2.9 kmh 29.88 in1011.9 mb 0.00 in0.0 mm 0.00 in0.0 mm 0.66 in16.8 mm
05:44 PM 71.0°F21.7°C 69.7°F20.9°C 96% Calm Calm -- 29.88 in1011.9 mb 0.00 in0.0 mm 0.00 in0.0 mm 0.66 in16.8 mm
05:49 PM 70.7°F21.5°C 69.7°F20.9°C 97% 2.2 mph S3.5 kmh S 2.2 mph3.5 kmh 29.91 in1012.9 mb 0.00 in0.0 mm 0.00 in0.0 mm 0.70 in17.8 mm
05:54 PM 70.5°F21.4°C 69.5°F20.8°C 97% 3.2 mph E5.1 kmh E 4.4 mph7.1 kmh 29.91 in1012.9 mb 0.00 in0.0 mm 0.00 in0.0 mm 0.70 in17.8 mm
05:59 PM 70.1°F21.2°C 69.1°F20.6°C 97% Calm Calm 4.4 mph7.1 kmh 29.91 in1012.9 mb 0.00 in0.0 mm 0.00 in0.0 mm 0.70 in17.8 mm
06:04 PM 70.1°F21.2°C 69.4°F20.8°C 98% Calm Calm 2.6 mph4.2 kmh 29.88 in1011.9 mb 0.00 in0.0 mm 0.00 in0.0 mm 0.70 in17.8 mm
06:09 PM 69.8°F21.0°C 69.1°F20.6°C 98% Calm Calm -- 29.88 in1011.9 mb 0.00 in0.0 mm 0.00 in0.0 mm 0.70 in17.8 mm
06:16 PM 69.8°F21.0°C 69.1°F20.6°C 98% Calm Calm -- 29.88 in1011.9 mb 0.00 in0.0 mm 0.00 in0.0 mm 0.70 in17.8 mm
06:21 PM 69.8°F21.0°C 69.1°F20.6°C 98% Calm Calm 2.2 mph3.5 kmh 29.91 in1012.9 mb 0.00 in0.0 mm 0.00 in0.0 mm 0.70 in17.8 mm
06:26 PM 69.8°F21.0°C 69.1°F20.6°C 98% Calm Calm 2.2 mph3.5 kmh 29.91 in1012.9 mb 0.00 in0.0 mm 0.00 in0.0 mm 0.70 in17.8 mm
06:31 PM 69.6°F20.9°C 68.9°F20.5°C 98% 2.7 mph ESE4.3 kmh ESE 3.2 mph5.1 kmh 29.91 in1012.9 mb 0.00 in0.0 mm 0.00 in0.0 mm 0.70 in17.8 mm
06:36 PM 69.6°F20.9°C 68.9°F20.5°C 98% Calm Calm 3.2 mph5.1 kmh 29.91 in1012.9 mb 0.00 in0.0 mm 0.00 in0.0 mm 0.70 in17.8 mm
06:41 PM 69.4°F20.8°C 68.7°F20.4°C 98% 2.0 mph S3.2 kmh S 2.6 mph4.2 kmh 29.91 in1012.9 mb 0.00 in0.0 mm 0.00 in0.0 mm 0.70 in17.8 mm
06:46 PM 69.4°F20.8°C 68.7°F20.4°C 98% Calm Calm 3.2 mph5.1 kmh 29.91 in1012.9 mb 0.00 in0.0 mm 0.00 in0.0 mm 0.70 in17.8 mm
06:51 PM 69.2°F20.7°C 68.5°F20.3°C 98% 2.8 mph SSE4.5 kmh SSE 4.0 mph6.4 kmh 29.91 in1012.9 mb 0.00 in0.0 mm 0.00 in0.0 mm 0.70 in17.8 mm
06:57 PM 69.2°F20.7°C 68.5°F20.3°C 98% 2.6 mph SSE4.2 kmh SSE 4.0 mph6.4 kmh 29.91 in1012.9 mb 0.00 in0.0 mm 0.00 in0.0 mm 0.70 in17.8 mm
07:02 PM 69.1°F20.6°C 68.4°F20.2°C 98% Calm Calm 4.0 mph6.4 kmh 29.91 in1012.9 mb 0.00 in0.0 mm 0.00 in0.0 mm 0.70 in17.8 mm
07:07 PM 69.1°F20.6°C 68.4°F20.2°C 98% Calm Calm 2.6 mph4.2 kmh 29.91 in1012.9 mb 0.00 in0.0 mm 0.00 in0.0 mm 0.70 in17.8 mm
07:12 PM 69.1°F20.6°C 68.4°F20.2°C 98% 1.8 mph SSE2.9 kmh SSE 1.8 mph2.9 kmh 29.91 in1012.9 mb 0.00 in0.0 mm 0.00 in0.0 mm 0.70 in17.8 mm
07:17 PM 69.1°F20.6°C 68.4°F20.2°C 98% Calm Calm 1.8 mph2.9 kmh 29.91 in1012.9 mb 0.04 in1.0 mm 0.48 in12.2 mm 0.74 in18.8 mm
07:22 PM 69.1°F20.6°C 68.4°F20.2°C 98% 2.7 mph ESE4.3 kmh ESE 4.0 mph6.4 kmh 29.91 in1012.9 mb 0.04 in1.0 mm 0.00 in0.0 mm 0.74 in18.8 mm
07:27 PM 68.9°F20.5°C 68.2°F20.1°C 98% Calm Calm 4.0 mph6.4 kmh 29.91 in1012.9 mb 0.04 in1.0 mm 0.00 in0.0 mm 0.74 in18.8 mm
07:32 PM 68.9°F20.5°C 68.2°F20.1°C 98% Calm Calm 4.0 mph6.4 kmh 29.91 in1012.9 mb 0.04 in1.0 mm 0.00 in0.0 mm 0.74 in18.8 mm
07:37 PM 68.7°F20.4°C 68.0°F20.0°C 98% 2.6 mph ESE4.2 kmh ESE 2.6 mph4.2 kmh 29.91 in1012.9 mb 0.04 in1.0 mm 0.00 in0.0 mm 0.74 in18.8 mm
07:42 PM 68.7°F20.4°C 68.0°F20.0°C 98% 2.6 mph ESE4.2 kmh ESE 3.2 mph5.1 kmh 29.91 in1012.9 mb 0.09 in2.3 mm 0.60 in15.2 mm 0.79 in20.1 mm
07:49 PM 68.5°F20.3°C 67.8°F19.9°C 98% Calm Calm 3.2 mph5.1 kmh 29.88 in1011.9 mb 0.00 in0.0 mm 0.00 in0.0 mm 0.79 in20.1 mm
07:54 PM 68.5°F20.3°C 67.8°F19.9°C 98% 3.0 mph ESE4.8 kmh ESE 4.4 mph7.1 kmh 29.88 in1011.9 mb 0.00 in0.0 mm 0.00 in0.0 mm 0.79 in20.1 mm
07:59 PM 68.5°F20.3°C 67.8°F19.9°C 98% Calm Calm 4.4 mph7.1 kmh 29.88 in1011.9 mb 0.00 in0.0 mm 0.00 in0.0 mm 0.79 in20.1 mm
08:04 PM 68.3°F20.2°C 67.6°F19.8°C 98% Calm Calm 1.8 mph2.9 kmh 29.91 in1012.9 mb 0.00 in0.0 mm 0.00 in0.0 mm 0.79 in20.1 mm
08:09 PM 68.3°F20.2°C 67.6°F19.8°C 98% Calm Calm 4.4 mph7.1 kmh 29.91 in1012.9 mb 0.00 in0.0 mm 0.00 in0.0 mm 0.79 in20.1 mm
08:14 PM 68.2°F20.1°C 67.5°F19.7°C 98% Calm Calm 4.4 mph7.1 kmh 29.91 in1012.9 mb 0.00 in0.0 mm 0.00 in0.0 mm 0.79 in20.1 mm
08:19 PM 68.2°F20.1°C 67.5°F19.7°C 98% Calm Calm -- 29.94 in1013.9 mb 0.00 in0.0 mm 0.00 in0.0 mm 0.79 in20.1 mm
08:24 PM 68.2°F20.1°C 67.5°F19.7°C 98% Calm Calm -- 29.94 in1013.9 mb 0.00 in0.0 mm 0.00 in0.0 mm 0.79 in20.1 mm
08:29 PM 68.3°F20.2°C 67.6°F19.8°C 98% Calm Calm -- 29.94 in1013.9 mb 0.00 in0.0 mm 0.00 in0.0 mm 0.79 in20.1 mm
08:34 PM 68.2°F20.1°C 67.5°F19.7°C 98% Calm Calm -- 29.94 in1013.9 mb 0.00 in0.0 mm 0.00 in0.0 mm 0.79 in20.1 mm
08:39 PM 68.0°F20.0°C 67.3°F19.6°C 98% Calm Calm -- 29.94 in1013.9 mb 0.00 in0.0 mm 0.00 in0.0 mm 0.79 in20.1 mm
08:44 PM 67.8°F19.9°C 67.1°F19.5°C 98% Calm Calm -- 29.94 in1013.9 mb 0.00 in0.0 mm 0.00 in0.0 mm 0.79 in20.1 mm
08:50 PM 67.8°F19.9°C 67.1°F19.5°C 98% Calm Calm -- 29.91 in1012.9 mb 0.00 in0.0 mm 0.00 in0.0 mm 0.79 in20.1 mm
08:55 PM 67.6°F19.8°C 67.0°F19.4°C 98% Calm Calm -- 29.91 in1012.9 mb 0.00 in0.0 mm 0.00 in0.0 mm 0.79 in20.1 mm
09:00 PM 67.6°F19.8°C 67.0°F19.4°C 98% Calm Calm -- 29.91 in1012.9 mb 0.00 in0.0 mm 0.00 in0.0 mm 0.79 in20.1 mm
09:05 PM 67.6°F19.8°C 67.0°F19.4°C 98% Calm Calm -- 29.94 in1013.9 mb 0.00 in0.0 mm 0.00 in0.0 mm 0.79 in20.1 mm
09:10 PM 67.4°F19.7°C 66.8°F19.3°C 98% Calm Calm -- 29.94 in1013.9 mb 0.00 in0.0 mm 0.00 in0.0 mm 0.79 in20.1 mm
09:15 PM 67.4°F19.7°C 66.8°F19.3°C 98% 2.1 mph ESE3.4 kmh ESE 2.2 mph3.5 kmh 29.94 in1013.9 mb 0.00 in0.0 mm 0.00 in0.0 mm 0.79 in20.1 mm
09:22 PM 67.3°F19.6°C 66.7°F19.3°C 98% Calm Calm 4.0 mph6.4 kmh 29.94 in1013.9 mb 0.00 in0.0 mm 0.00 in0.0 mm 0.79 in20.1 mm
09:27 PM 67.3°F19.6°C 66.7°F19.3°C 98% 3.5 mph ESE5.6 kmh ESE 4.4 mph7.1 kmh 29.94 in1013.9 mb 0.00 in0.0 mm 0.00 in0.0 mm 0.79 in20.1 mm
09:33 PM 67.3°F19.6°C 66.7°F19.3°C 98% 4.3 mph ESE6.9 kmh ESE 5.4 mph8.7 kmh 29.94 in1013.9 mb 0.00 in0.0 mm 0.00 in0.0 mm 0.79 in20.1 mm
09:38 PM 67.3°F19.6°C 66.7°F19.3°C 98% 2.3 mph ESE3.7 kmh ESE 5.4 mph8.7 kmh 29.94 in1013.9 mb 0.00 in0.0 mm 0.00 in0.0 mm 0.79 in20.1 mm
09:43 PM 67.3°F19.6°C 66.7°F19.3°C 98% 1.8 mph ESE2.9 kmh ESE 4.4 mph7.1 kmh 29.94 in1013.9 mb 0.00 in0.0 mm 0.00 in0.0 mm 0.79 in20.1 mm
09:48 PM 67.3°F19.6°C 66.7°F19.3°C 98% Calm Calm 2.6 mph4.2 kmh 29.94 in1013.9 mb 0.00 in0.0 mm 0.00 in0.0 mm 0.79 in20.1 mm
09:54 PM 67.3°F19.6°C 66.7°F19.3°C 98% 1.8 mph ESE2.9 kmh ESE 1.8 mph2.9 kmh 29.94 in1013.9 mb 0.00 in0.0 mm 0.00 in0.0 mm 0.79 in20.1 mm
09:59 PM 67.3°F19.6°C 66.7°F19.3°C 98% Calm Calm 1.8 mph2.9 kmh 29.94 in1013.9 mb 0.00 in0.0 mm 0.00 in0.0 mm 0.79 in20.1 mm
10:04 PM 67.1°F19.5°C 66.5°F19.2°C 98% 1.8 mph E2.9 kmh E 4.0 mph6.4 kmh 29.94 in1013.9 mb 0.00 in0.0 mm 0.00 in0.0 mm 0.79 in20.1 mm
10:09 PM 67.1°F19.5°C 66.5°F19.2°C 98% Calm Calm 4.0 mph6.4 kmh 29.94 in1013.9 mb 0.00 in0.0 mm 0.00 in0.0 mm 0.79 in20.1 mm
10:14 PM 67.1°F19.5°C 66.5°F19.2°C 98% Calm Calm 2.2 mph3.5 kmh 29.94 in1013.9 mb 0.00 in0.0 mm 0.00 in0.0 mm 0.79 in20.1 mm
10:19 PM 67.1°F19.5°C 66.5°F19.2°C 98% Calm Calm 2.2 mph3.5 kmh 29.94 in1013.9 mb 0.00 in0.0 mm 0.00 in0.0 mm 0.79 in20.1 mm
10:25 PM 67.1°F19.5°C 66.5°F19.2°C 98% Calm Calm -- 29.94 in1013.9 mb 0.00 in0.0 mm 0.00 in0.0 mm 0.79 in20.1 mm
10:29 PM 66.9°F19.4°C 66.3°F19.1°C 98% Calm Calm -- 29.94 in1013.9 mb 0.00 in0.0 mm 0.00 in0.0 mm 0.79 in20.1 mm
10:35 PM 66.9°F19.4°C 66.3°F19.1°C 98% Calm Calm -- 29.91 in1012.9 mb 0.00 in0.0 mm 0.00 in0.0 mm 0.79 in20.1 mm
10:40 PM 66.9°F19.4°C 66.3°F19.1°C 98% Calm Calm -- 29.91 in1012.9 mb 0.00 in0.0 mm 0.00 in0.0 mm 0.79 in20.1 mm
10:45 PM 66.9°F19.4°C 66.3°F19.1°C 98% Calm Calm -- 29.91 in1012.9 mb 0.00 in0.0 mm 0.00 in0.0 mm 0.79 in20.1 mm
10:50 PM 66.7°F19.3°C 66.1°F18.9°C 98% Calm Calm -- 29.91 in1012.9 mb 0.00 in0.0 mm 0.00 in0.0 mm 0.79 in20.1 mm
10:55 PM 66.7°F19.3°C 66.1°F18.9°C 98% Calm Calm -- 29.91 in1012.9 mb 0.00 in0.0 mm 0.00 in0.0 mm 0.79 in20.1 mm
11:00 PM 66.7°F19.3°C 66.1°F18.9°C 98% Calm Calm -- 29.91 in1012.9 mb 0.00 in0.0 mm 0.00 in0.0 mm 0.75 in19.1 mm
11:05 PM 66.7°F19.3°C 66.1°F18.9°C 98% Calm Calm -- 29.94 in1013.9 mb 0.00 in0.0 mm 0.00 in0.0 mm 0.75 in19.1 mm
11:10 PM 66.7°F19.3°C 66.1°F18.9°C 98% Calm Calm -- 29.94 in1013.9 mb 0.00 in0.0 mm 0.00 in0.0 mm 0.75 in19.1 mm
11:15 PM 66.9°F19.4°C 66.3°F19.1°C 98% 2.2 mph SE3.5 kmh SE 2.6 mph4.2 kmh 29.94 in1013.9 mb 0.00 in0.0 mm 0.00 in0.0 mm 0.75 in19.1 mm
11:20 PM 66.9°F19.4°C 66.3°F19.1°C 98% 2.2 mph SE3.5 kmh SE 2.6 mph4.2 kmh 29.94 in1013.9 mb 0.00 in0.0 mm 0.00 in0.0 mm 0.75 in19.1 mm
11:25 PM 66.9°F19.4°C 66.3°F19.1°C 98% Calm Calm 2.6 mph4.2 kmh 29.94 in1013.9 mb 0.00 in0.0 mm 0.00 in0.0 mm 0.75 in19.1 mm
11:30 PM 66.9°F19.4°C 66.3°F19.1°C 98% 2.9 mph SE4.7 kmh SE 3.2 mph5.1 kmh 29.94 in1013.9 mb 0.00 in0.0 mm 0.00 in0.0 mm 0.75 in19.1 mm
11:36 PM 67.1°F19.5°C 66.5°F19.2°C 98% Calm Calm 3.2 mph5.1 kmh 29.94 in1013.9 mb 0.00 in0.0 mm 0.00 in0.0 mm 0.75 in19.1 mm
11:41 PM 67.1°F19.5°C 66.5°F19.2°C 98% Calm Calm -- 29.94 in1013.9 mb 0.00 in0.0 mm 0.00 in0.0 mm 0.75 in19.1 mm
11:46 PM 66.9°F19.4°C 66.3°F19.1°C 98% Calm Calm -- 29.94 in1013.9 mb 0.00 in0.0 mm 0.00 in0.0 mm 0.75 in19.1 mm
11:51 PM 66.9°F19.4°C 66.3°F19.1°C 98% 2.2 mph SE3.5 kmh SE 2.2 mph3.5 kmh 29.94 in1013.9 mb 0.00 in0.0 mm 0.00 in0.0 mm 0.75 in19.1 mm
11:56 PM 66.9°F19.4°C 66.3°F19.1°C 98% 2.2 mph SE3.5 kmh SE 2.2 mph3.5 kmh 29.94 in1013.9 mb 0.00 in0.0 mm 0.00 in0.0 mm 0.75 in19.1 mm